Time;durP1;ratioP1;P1;durP2;ratioP2;P2;SDS_P1;SDS_P2;PMS_P1;PMS_P2;Temp;Humidity;BMP_temperature;BMP_pressure;BME280_temperature;BME280_humidity;BME280_pressure;Samples;Min_cycle;Max_cycle;Signal;HPM_P1;HPM_P2
2022/08/21 00:00:27;;;;;;;0.65;0.40;;;;;;;29.14;40.92;99165.09;5109716;28;20048;-67
2022/08/21 00:02:57;;;;;;;0.30;0.30;;;;;;;29.14;41.27;99165.09;5109704;28;20048;-67
2022/08/21 00:05:23;;;;;;;0.40;0.40;;;;;;;29.14;40.66;99161.50;5109849;28;20077;-67
2022/08/21 00:07:49;;;;;;;0.35;0.25;;;;;;;29.15;40.88;99165.91;5109762;28;20075;-61
2022/08/21 00:10:15;;;;;;;0.30;0.28;;;;;;;29.14;40.77;99164.31;5109795;28;20055;-67
2022/08/21 00:12:42;;;;;;;0.63;0.50;;;;;;;29.12;41.12;99158.34;5109817;28;20048;-61
2022/08/21 00:15:09;;;;;;;0.43;0.35;;;;;;;29.15;40.96;99165.91;5109632;28;20031;-61
2022/08/21 00:17:36;;;;;;;0.73;0.40;;;;;;;29.15;40.74;99163.09;5109733;28;20507;-61
2022/08/21 00:20:06;;;;;;;0.50;0.40;;;;;;;29.12;41.17;99159.13;5109585;28;20362;-67
2022/08/21 00:22:32;;;;;;;0.30;0.30;;;;;;;29.14;41.21;99164.31;5109416;28;20051;-67
2022/08/21 00:24:57;;;;;;;0.47;0.40;;;;;;;29.13;41.17;99165.56;5109673;28;20046;-61
2022/08/21 00:27:23;;;;;;;0.40;0.40;;;;;;;29.13;41.22;99171.97;5109436;28;20043;-61
2022/08/21 00:29:48;;;;;;;0.63;0.40;;;;;;;29.13;40.75;99169.16;5109553;28;20419;-61
2022/08/21 00:32:20;;;;;;;1.05;0.50;;;;;;;29.14;41.01;99169.94;5109316;28;20074;-67
2022/08/21 00:34:45;;;;;;;0.60;0.38;;;;;;;29.14;41.15;99173.56;5109481;28;20665;-61
2022/08/21 00:37:11;;;;;;;0.50;0.38;;;;;;;29.13;41.14;99166.34;5109447;28;20146;-67
2022/08/21 00:39:37;;;;;;;0.30;0.30;;;;;;;29.14;41.03;99167.13;5109252;28;20055;-67
2022/08/21 00:42:03;;;;;;;0.60;0.40;;;;;;;29.12;40.98;99167.56;5109347;28;20042;-66
2022/08/21 00:44:28;;;;;;;0.50;0.50;;;;;;;29.14;40.95;99179.19;5109491;28;20138;-61
2022/08/21 00:46:53;;;;;;;0.75;0.32;;;;;;;29.15;40.76;99177.16;5108969;28;20118;-67
2022/08/21 00:49:19;;;;;;;0.55;0.43;;;;;;;29.15;41.11;99177.97;5109469;28;20047;-61
2022/08/21 00:51:47;;;;;;;0.30;0.30;;;;;;;29.15;41.00;99177.16;5109414;28;20558;-61
2022/08/21 00:54:14;;;;;;;0.30;0.30;;;;;;;29.14;40.90;99169.94;5107318;28;20050;-61
2022/08/21 00:56:40;;;;;;;0.82;0.30;;;;;;;29.14;41.26;99167.94;5109379;28;20046;-61
2022/08/21 00:59:06;;;;;;;0.40;0.40;;;;;;;29.14;41.10;99165.09;5109361;28;20044;-61
2022/08/21 01:01:31;;;;;;;0.57;0.40;;;;;;;29.12;40.88;99161.94;5109306;28;20514;-67
2022/08/21 01:03:57;;;;;;;0.80;0.40;;;;;;;29.14;40.83;99164.31;5109071;28;20046;-61
2022/08/21 01:06:22;;;;;;;0.50;0.50;;;;;;;29.15;40.90;99171.53;5108899;28;20047;-67
2022/08/21 01:08:48;;;;;;;0.63;0.40;;;;;;;29.13;41.12;99171.19;5111938;28;20138;-61
2022/08/21 01:11:15;;;;;;;0.55;0.50;;;;;;;29.13;41.07;99171.19;5112419;28;20487;-67
2022/08/21 01:13:45;;;;;;;0.90;0.40;;;;;;;29.13;41.12;99169.16;5112534;28;20063;-61
2022/08/21 01:16:13;;;;;;;0.88;0.47;;;;;;;29.13;41.18;99174.00;5112584;28;20097;-61
2022/08/21 01:18:39;;;;;;;0.45;0.30;;;;;;;29.14;41.11;99167.13;5112535;28;20047;-61
2022/08/21 01:21:21;;;;;;;0.77;0.35;;;;;;;29.11;41.07;99165.19;5112605;28;20043;-61
2022/08/21 01:23:49;;;;;;;0.63;0.30;;;;;;;29.11;41.12;99160.38;5112626;28;20052;-61
2022/08/21 01:26:17;;;;;;;0.38;0.35;;;;;;;29.13;40.91;99162.72;5112395;28;20269;-66
2022/08/21 01:28:54;;;;;;;4.30;0.52;;;;;;;29.13;40.77;99162.72;5112256;28;20491;-67
2022/08/21 01:31:22;;;;;;;1.98;0.40;;;;;;;29.12;40.73;99161.94;5112622;28;20050;-61
2022/08/21 01:33:48;;;;;;;0.57;0.40;;;;;;;29.10;40.86;99158.00;5110432;28;20044;-61
2022/08/21 01:36:14;;;;;;;0.73;0.40;;;;;;;29.12;40.96;99169.59;5112254;28;20075;-66
2022/08/21 01:38:39;;;;;;;0.30;0.30;;;;;;;29.10;41.10;99166.44;5112167;28;20078;-61
2022/08/21 01:41:04;;;;;;;1.00;0.40;;;;;;;29.13;41.08;99169.16;5112220;28;20039;-67
2022/08/21 01:43:30;;;;;;;0.20;0.20;;;;;;;29.12;41.32;99161.16;5112114;28;20134;-67
2022/08/21 01:45:55;;;;;;;0.20;0.20;;;;;;;29.12;41.09;99163.97;5111681;28;20057;-61
2022/08/21 01:48:21;;;;;;;0.43;0.32;;;;;;;29.13;41.05;99171.19;5111994;28;20062;-61
2022/08/21 01:50:46;;;;;;;0.30;0.30;;;;;;;29.14;41.04;99158.69;5111912;28;20044;-67
2022/08/21 01:53:13;;;;;;;0.20;0.20;;;;;;;29.10;40.84;99158.00;5111907;28;20078;-61
2022/08/21 01:55:38;;;;;;;0.30;0.30;;;;;;;29.13;40.84;99157.09;5111902;28;20127;-61
2022/08/21 01:58:04;;;;;;;0.38;0.38;;;;;;;29.09;41.22;99145.16;5111674;28;20477;-61
2022/08/21 02:00:29;;;;;;;0.17;0.17;;;;;;;29.13;41.04;99154.28;5111746;28;20039;-67
2022/08/21 02:02:55;;;;;;;0.80;0.50;;;;;;;29.11;40.99;99149.09;5111892;28;20046;-67
2022/08/21 02:05:21;;;;;;;0.50;0.40;;;;;;;29.09;41.00;99145.94;5111936;28;20043;-67
2022/08/21 02:07:50;;;;;;;0.30;0.30;;;;;;;29.11;41.11;99153.94;5111759;28;20066;-61
2022/08/21 02:10:20;;;;;;;0.30;0.30;;;;;;;29.12;40.88;99149.88;5111634;28;20066;-61
2022/08/21 02:12:46;;;;;;;0.38;0.30;;;;;;;29.13;41.09;99157.09;5111684;28;20110;-67
2022/08/21 02:15:11;;;;;;;0.30;0.30;;;;;;;29.10;41.19;99149.53;5111797;28;20040;-61
2022/08/21 02:17:48;;;;;;;0.30;0.28;;;;;;;29.11;41.24;99159.56;5111649;28;20039;-66
2022/08/21 02:20:27;;;;;;;2.63;0.47;;;;;;;29.10;41.22;99152.34;5111458;28;20039;-61
2022/08/21 02:22:53;;;;;;;0.70;0.40;;;;;;;29.12;40.91;99152.72;5111271;28;20078;-61
2022/08/21 02:25:20;;;;;;;0.52;0.35;;;;;;;29.11;41.29;99149.09;5111424;28;20075;-61
2022/08/21 02:27:47;;;;;;;0.30;0.30;;;;;;;29.06;41.11;99141.94;5111384;28;20043;-61
2022/08/21 02:30:35;;;;;;;0.30;0.30;;;;;;;29.10;41.10;99146.72;5111298;28;20052;-67
2022/08/21 02:33:01;;;;;;;0.47;0.40;;;;;;;29.10;41.29;99141.09;5111427;28;20055;-67
2022/08/21 02:35:27;;;;;;;1.00;0.32;;;;;;;29.12;41.01;99149.88;5111326;28;20457;-67
2022/08/21 02:37:57;;;;;;;0.38;0.30;;;;;;;29.10;41.06;99152.34;5111273;28;20074;-61
2022/08/21 02:40:30;;;;;;;0.65;0.40;;;;;;;29.11;41.26;99157.53;5111310;28;20040;-61
2022/08/21 02:42:56;;;;;;;0.30;0.30;;;;;;;29.12;40.89;99155.53;5111380;28;20032;-61
2022/08/21 02:45:21;;;;;;;1.05;0.30;;;;;;;29.10;41.38;99147.50;5110935;28;20052;-67
2022/08/21 02:47:53;;;;;;;0.35;0.30;;;;;;;29.11;41.23;99149.09;5110998;28;20494;-61
2022/08/21 02:50:29;;;;;;;0.20;0.20;;;;;;;29.12;41.31;99149.88;5111046;28;20492;-67
2022/08/21 02:52:55;;;;;;;0.43;0.40;;;;;;;29.12;41.24;99149.88;5111038;28;20071;-67
2022/08/21 02:55:22;;;;;;;1.95;0.40;;;;;;;29.11;41.42;99148.31;5110793;28;20032;-66
2022/08/21 02:57:48;;;;;;;0.73;0.50;;;;;;;29.12;41.01;99152.72;5110855;28;20046;-61
2022/08/21 03:00:14;;;;;;;0.70;0.30;;;;;;;29.10;40.95;99147.50;5111063;28;20040;-67
2022/08/21 03:02:40;;;;;;;0.32;0.30;;;;;;;29.10;40.94;99153.16;5110649;28;20051;-66
2022/08/21 03:05:09;;;;;;;0.68;0.20;;;;;;;29.11;41.04;99148.31;5110770;28;20071;-67
2022/08/21 03:07:37;;;;;;;0.35;0.22;;;;;;;29.09;40.95;99133.88;5110713;28;20456;-61
2022/08/21 03:10:04;;;;;;;0.30;0.30;;;;;;;29.12;41.24;99141.44;5110452;28;20411;-61
2022/08/21 03:12:29;;;;;;;0.57;0.30;;;;;;;29.10;40.98;99141.88;5110693;28;20039;-67
2022/08/21 03:14:54;;;;;;;0.45;0.35;;;;;;;29.08;41.19;99133.09;5110575;28;20051;-67
2022/08/21 03:17:20;;;;;;;0.63;0.30;;;;;;;29.13;40.93;99137.38;5110523;28;20043;-61
2022/08/21 03:19:45;;;;;;;0.55;0.40;;;;;;;29.10;41.16;99130.63;5110690;28;20048;-61
2022/08/21 03:22:11;;;;;;;0.40;0.38;;;;;;;29.11;41.08;99137.03;5110317;28;20059;-67
2022/08/21 03:24:37;;;;;;;0.43;0.30;;;;;;;29.11;41.22;99132.19;5110590;28;20032;-61
2022/08/21 03:27:03;;;;;;;0.85;0.47;;;;;;;29.10;41.32;99129.81;5110492;28;20491;-61
2022/08/21 03:29:28;;;;;;;0.30;0.28;;;;;;;29.10;40.79;99124.19;5110251;28;20046;-61
2022/08/21 03:31:54;;;;;;;0.38;0.35;;;;;;;29.10;40.88;99124.19;5109748;28;20047;-67
2022/08/21 03:34:20;;;;;;;0.28;0.28;;;;;;;29.11;40.96;99128.59;5110393;28;20048;-61
2022/08/21 03:36:48;;;;;;;0.28;0.28;;;;;;;29.10;40.96;99119.34;5108332;28;20187;-61
2022/08/21 03:39:15;;;;;;;0.40;0.30;;;;;;;29.11;41.31;99120.13;5110486;28;20104;-66
2022/08/21 03:41:41;;;;;;;2.10;0.47;;;;;;;29.11;41.01;99122.97;5109965;28;20047;-67
2022/08/21 03:44:06;;;;;;;0.22;0.22;;;;;;;29.10;41.07;99121.38;5110295;28;20043;-67
2022/08/21 03:46:32;;;;;;;0.13;0.13;;;;;;;29.10;41.32;99116.53;5109971;28;20088;-67
2022/08/21 03:48:57;;;;;;;0.45;0.38;;;;;;;29.11;40.90;99125.78;5109957;28;20051;-67
2022/08/21 03:51:23;;;;;;;0.43;0.30;;;;;;;29.10;41.06;99119.34;5110305;28;20101;-61
2022/08/21 03:53:48;;;;;;;0.57;0.30;;;;;;;29.11;41.09;99120.13;5110000;28;20193;-61
2022/08/21 03:56:15;;;;;;;0.43;0.40;;;;;;;29.10;41.36;99124.19;5109916;28;21489;-67
2022/08/21 03:58:41;;;;;;;0.20;0.20;;;;;;;29.11;40.90;99128.59;5110161;28;20040;-61
2022/08/21 04:01:06;;;;;;;0.20;0.20;;;;;;;29.10;41.32;99132.66;5110047;28;20040;-62
2022/08/21 04:03:34;;;;;;;0.40;0.40;;;;;;;29.10;41.14;99129.81;5109847;28;20130;-67
2022/08/21 04:06:00;;;;;;;0.32;0.30;;;;;;;29.10;41.33;99133.44;5109779;28;20047;-61
2022/08/21 04:08:25;;;;;;;0.20;0.20;;;;;;;29.10;40.99;99139.06;5109662;28;20048;-61
2022/08/21 04:10:55;;;;;;;0.28;0.28;;;;;;;29.10;40.92;99138.28;5109969;28;20484;-67
2022/08/21 04:13:21;;;;;;;0.30;0.30;;;;;;;29.09;41.03;99133.88;5109841;28;20042;-67
2022/08/21 04:15:47;;;;;;;0.22;0.22;;;;;;;29.09;41.31;99136.69;5109641;28;20094;-61
2022/08/21 04:18:13;;;;;;;0.30;0.20;;;;;;;29.10;41.28;99138.28;5109675;28;20044;-66
2022/08/21 04:20:40;;;;;;;0.50;0.30;;;;;;;29.09;41.09;99145.94;5109610;28;20047;-67
2022/08/21 04:23:06;;;;;;;1.58;0.43;;;;;;;29.09;41.05;99136.69;5109514;28;20047;-67
2022/08/21 04:25:32;;;;;;;0.20;0.20;;;;;;;29.09;41.24;99140.31;5109731;28;20047;-61
2022/08/21 04:27:58;;;;;;;0.20;0.20;;;;;;;29.06;41.32;99141.16;5109357;28;20092;-66
2022/08/21 04:30:23;;;;;;;0.22;0.22;;;;;;;29.09;41.10;99148.75;5109544;28;20062;-61
2022/08/21 04:32:50;;;;;;;0.20;0.20;;;;;;;29.09;41.18;99145.16;5109455;28;20044;-67
2022/08/21 04:35:19;;;;;;;0.30;0.30;;;;;;;29.07;41.26;99137.09;5109452;28;20048;-67
2022/08/21 04:37:45;;;;;;;0.38;0.30;;;;;;;29.09;41.18;99142.31;5109495;28;20561;-67
2022/08/21 04:40:13;;;;;;;0.40;0.30;;;;;;;29.09;40.95;99142.31;5109450;28;20044;-67
2022/08/21 04:42:51;;;;;;;0.22;0.22;;;;;;;29.06;41.05;99141.94;5110569;28;20707;-67
2022/08/21 04:45:23;;;;;;;0.60;0.30;;;;;;;29.09;41.37;99145.94;5113187;28;20134;-67
2022/08/21 04:47:51;;;;;;;0.32;0.28;;;;;;;29.08;41.19;99141.53;5113211;28;20043;-61
2022/08/21 04:50:16;;;;;;;0.25;0.20;;;;;;;29.09;40.96;99145.16;5112750;28;20051;-67
2022/08/21 04:52:43;;;;;;;0.60;0.30;;;;;;;29.05;41.18;99140.38;5112944;28;20051;-67
2022/08/21 04:55:08;;;;;;;0.30;0.30;;;;;;;29.07;41.43;99145.56;5113276;28;20577;-67
2022/08/21 04:57:35;;;;;;;0.40;0.30;;;;;;;29.04;41.03;99143.63;5113270;28;20040;-61
2022/08/21 05:00:00;;;;;;;0.22;0.22;;;;;;;29.08;41.04;99150.00;5113158;28;20088;-67
2022/08/21 05:02:26;;;;;;;0.28;0.22;;;;;;;29.02;41.29;99135.63;5112371;28;20058;-61
2022/08/21 05:04:54;;;;;;;0.22;0.22;;;;;;;29.06;41.31;99144.75;5112635;28;20052;-67
2022/08/21 05:07:24;;;;;;;0.40;0.30;;;;;;;29.08;41.08;99149.16;5112734;28;20036;-61
2022/08/21 05:09:50;;;;;;;0.30;0.30;;;;;;;29.08;41.01;99154.78;5112550;28;20131;-61
2022/08/21 05:12:16;;;;;;;0.60;0.30;;;;;;;29.07;41.27;99148.38;5112563;28;20043;-61
2022/08/21 05:14:42;;;;;;;0.30;0.30;;;;;;;29.06;41.16;99153.22;5112336;28;20526;-61
2022/08/21 05:17:08;;;;;;;0.47;0.30;;;;;;;29.08;41.33;99147.16;5112513;28;20092;-61
2022/08/21 05:19:34;;;;;;;0.13;0.13;;;;;;;29.07;41.11;99151.19;5112500;28;20043;-61
2022/08/21 05:22:00;;;;;;;0.40;0.30;;;;;;;29.08;41.15;99154.78;5112134;28;20408;-61
2022/08/21 05:24:26;;;;;;;0.30;0.30;;;;;;;29.06;41.03;99156.03;5112461;28;20072;-61
2022/08/21 05:26:52;;;;;;;0.25;0.25;;;;;;;29.07;41.09;99156.81;5112337;28;20044;-61
2022/08/21 05:29:17;;;;;;;0.73;0.40;;;;;;;29.07;41.41;99159.63;5112272;28;20056;-61
2022/08/21 05:31:43;;;;;;;0.30;0.30;;;;;;;29.05;41.40;99159.28;5112165;28;20054;-61
2022/08/21 05:34:09;;;;;;;0.17;0.17;;;;;;;29.07;41.18;99159.63;5112022;28;20137;-61
2022/08/21 05:36:34;;;;;;;0.30;0.30;;;;;;;29.05;41.17;99162.91;5112358;28;20044;-61
2022/08/21 05:39:00;;;;;;;0.63;0.28;;;;;;;29.08;41.32;99163.25;5109911;28;20081;-61
2022/08/21 05:41:25;;;;;;;0.45;0.30;;;;;;;29.06;41.00;99160.88;5112014;28;20035;-61
2022/08/21 05:43:51;;;;;;;0.38;0.28;;;;;;;29.05;41.19;99157.28;5112020;28;20039;-61
2022/08/21 05:46:16;;;;;;;0.20;0.20;;;;;;;29.05;40.95;99170.56;5111959;28;20173;-61
2022/08/21 05:48:41;;;;;;;0.20;0.20;;;;;;;29.08;41.33;99171.69;5111840;28;20059;-61
2022/08/21 05:51:12;;;;;;;0.20;0.20;;;;;;;29.06;41.20;99163.69;5111987;28;20070;-67
2022/08/21 05:53:38;;;;;;;0.20;0.20;;;;;;;29.05;41.27;99162.09;5111533;28;20044;-61
2022/08/21 05:56:04;;;;;;;0.30;0.30;;;;;;;29.07;41.18;99170.91;5111832;28;20124;-61
2022/08/21 05:58:32;;;;;;;0.30;0.30;;;;;;;29.06;40.97;99172.94;5111834;28;20047;-67
2022/08/21 06:00:59;;;;;;;0.20;0.20;;;;;;;29.07;41.17;99168.09;5112040;28;20044;-61
2022/08/21 06:03:27;;;;;;;0.30;0.30;;;;;;;29.08;41.04;99168.88;5111899;28;20089;-61
2022/08/21 06:05:53;;;;;;;0.20;0.20;;;;;;;29.05;41.00;99165.72;5111768;28;20048;-61
2022/08/21 06:08:20;;;;;;;0.68;0.28;;;;;;;29.08;41.07;99169.69;5111535;28;20063;-67
2022/08/21 06:10:48;;;;;;;0.35;0.30;;;;;;;29.06;41.36;99164.47;5111733;28;20051;-61
2022/08/21 06:13:15;;;;;;;0.38;0.30;;;;;;;29.08;41.17;99172.50;5111718;28;20044;-61
2022/08/21 06:15:41;;;;;;;0.20;0.20;;;;;;;29.08;40.91;99168.88;5111636;28;20044;-61
2022/08/21 06:18:06;;;;;;;1.00;0.30;;;;;;;29.08;41.18;99164.06;5111580;28;20537;-61
2022/08/21 06:20:32;;;;;;;0.20;0.20;;;;;;;29.08;41.36;99160.44;5111681;28;20039;-61
2022/08/21 06:22:58;;;;;;;0.30;0.30;;;;;;;29.05;41.16;99162.91;5111475;28;20040;-61
2022/08/21 06:25:24;;;;;;;0.15;0.15;;;;;;;29.09;41.14;99167.69;5111322;28;20043;-67
2022/08/21 06:27:51;;;;;;;0.20;0.20;;;;;;;29.04;41.15;99160.53;5111179;28;20053;-67
2022/08/21 06:30:17;;;;;;;0.25;0.20;;;;;;;29.09;41.22;99173.31;5111258;28;20055;-61
2022/08/21 06:32:43;;;;;;;0.30;0.30;;;;;;;29.09;40.99;99167.69;5111488;28;20088;-61
2022/08/21 06:35:09;;;;;;;0.30;0.30;;;;;;;29.09;41.17;99164.84;5111130;28;20094;-61
2022/08/21 06:37:35;;;;;;;0.30;0.22;;;;;;;29.05;40.88;99162.09;5111278;28;20534;-61
2022/08/21 06:40:02;;;;;;;0.40;0.30;;;;;;;29.09;41.04;99167.69;5111249;28;20063;-61
2022/08/21 06:42:27;;;;;;;0.43;0.30;;;;;;;29.06;41.00;99170.13;5111212;28;20040;-61
2022/08/21 06:44:53;;;;;;;0.45;0.40;;;;;;;29.09;41.19;99165.66;5111155;28;20047;-61
2022/08/21 06:47:18;;;;;;;0.50;0.30;;;;;;;29.09;40.97;99162.03;5111226;28;20040;-61
2022/08/21 06:49:44;;;;;;;0.43;0.40;;;;;;;29.08;41.07;99161.25;5108805;28;20489;-67
2022/08/21 06:52:12;;;;;;;0.20;0.20;;;;;;;29.09;41.17;99162.03;5110949;28;20093;-61
2022/08/21 06:54:39;;;;;;;0.20;0.15;;;;;;;29.09;41.11;99165.66;5111081;28;20131;-61
2022/08/21 06:57:04;;;;;;;0.20;0.20;;;;;;;29.10;41.04;99166.44;5111016;28;20043;-61
2022/08/21 06:59:31;;;;;;;0.52;0.20;;;;;;;29.08;41.07;99166.88;5110553;28;20043;-61
2022/08/21 07:01:57;;;;;;;0.43;0.20;;;;;;;29.11;41.03;99182.09;5110765;28;20047;-61
2022/08/21 07:04:22;;;;;;;0.30;0.30;;;;;;;29.11;41.09;99177.25;5110611;28;20092;-61
2022/08/21 07:06:48;;;;;;;0.20;0.20;;;;;;;29.11;41.02;99170.84;5110143;28;20035;-67
2022/08/21 07:09:13;;;;;;;0.20;0.20;;;;;;;29.12;41.07;99172.41;5110572;28;20200;-66
2022/08/21 07:11:39;;;;;;;0.15;0.15;;;;;;;29.12;40.86;99178.06;5110685;28;20464;-66
2022/08/21 07:14:04;;;;;;;0.28;0.28;;;;;;;29.08;40.87;99164.06;5110775;28;20039;-61
2022/08/21 07:16:30;;;;;;;0.47;0.43;;;;;;;29.12;41.30;99180.88;5110566;28;20502;-61
2022/08/21 07:18:55;;;;;;;0.30;0.28;;;;;;;29.11;41.18;99182.09;5110492;28;20044;-61
2022/08/21 07:21:21;;;;;;;0.10;0.10;;;;;;;29.11;41.06;99166.00;5110638;28;20050;-61
2022/08/21 07:23:49;;;;;;;0.25;0.20;;;;;;;29.12;40.98;99180.88;5110295;28;20044;-67
2022/08/21 07:26:20;;;;;;;0.30;0.30;;;;;;;29.13;40.96;99174.00;5110248;28;20070;-67
2022/08/21 07:28:46;;;;;;;0.30;0.17;;;;;;;29.13;40.89;99179.63;5110416;28;20052;-61
2022/08/21 07:31:14;;;;;;;0.15;0.15;;;;;;;29.12;41.27;99181.66;5110297;28;20044;-67
2022/08/21 07:33:41;;;;;;;0.28;0.20;;;;;;;29.12;40.90;99176.03;5110379;28;20051;-61
2022/08/21 07:36:08;;;;;;;0.20;0.20;;;;;;;29.12;40.97;99167.56;5110163;28;20092;-66
2022/08/21 07:38:33;;;;;;;0.30;0.30;;;;;;;29.10;40.85;99164.41;5110275;28;20043;-61
2022/08/21 07:41:01;;;;;;;0.32;0.30;;;;;;;29.14;41.14;99167.13;5110220;28;20031;-67
2022/08/21 07:43:27;;;;;;;0.20;0.20;;;;;;;29.11;41.18;99166.00;5110012;28;20078;-61
2022/08/21 07:45:56;;;;;;;0.30;0.30;;;;;;;29.12;40.93;99163.97;5110378;28;20478;-61
2022/08/21 07:48:23;;;;;;;0.55;0.30;;;;;;;29.13;40.85;99163.53;5110022;28;20032;-67
2022/08/21 07:50:49;;;;;;;0.20;0.20;;;;;;;29.13;40.82;99163.53;5110147;28;20515;-67
2022/08/21 07:53:15;;;;;;;0.40;0.30;;;;;;;29.12;40.88;99158.34;5110067;28;20122;-61
2022/08/21 07:55:41;;;;;;;0.30;0.28;;;;;;;29.15;41.22;99158.28;5109992;28;20127;-61
2022/08/21 07:58:07;;;;;;;0.10;0.10;;;;;;;29.13;40.85;99157.09;5109829;28;20050;-61
2022/08/21 08:00:32;;;;;;;0.32;0.20;;;;;;;29.16;40.94;99161.88;5109991;28;20061;-63
2022/08/21 08:02:58;;;;;;;0.30;0.30;;;;;;;29.14;41.29;99144.59;5110015;28;20067;-61
2022/08/21 08:05:27;;;;;;;0.20;0.20;;;;;;;29.14;40.80;99136.94;5109841;28;20521;-61
2022/08/21 08:07:53;;;;;;;0.43;0.20;;;;;;;29.14;40.77;99131.31;5109825;28;20048;-61
2022/08/21 08:10:22;;;;;;;0.35;0.30;;;;;;;29.15;41.08;99137.72;5109629;28;20097;-67
2022/08/21 08:12:47;;;;;;;0.10;0.10;;;;;;;29.15;41.18;99127.28;5109789;28;20047;-67
2022/08/21 08:15:20;;;;;;;0.30;0.30;;;;;;;29.15;40.77;99120.84;5109749;28;20130;-67
2022/08/21 08:17:45;;;;;;;;;;;;;;;29.21;41.04;99119.88;5109895;28;20465;-67
2022/08/21 08:20:13;;;;;;;0.20;0.20;;;;;;;29.19;40.93;99122.34;5109519;28;20368;-61
2022/08/21 08:22:39;;;;;;;0.30;0.30;;;;;;;29.19;40.81;99124.38;5109593;28;20062;-61
2022/08/21 08:25:07;;;;;;;0.17;0.17;;;;;;;29.17;40.92;99112.75;5109637;28;20048;-67
2022/08/21 08:27:32;;;;;;;0.40;0.30;;;;;;;29.17;40.96;99116.38;5109814;28;20122;-61
2022/08/21 08:29:58;;;;;;;0.28;0.28;;;;;;;29.17;40.96;99119.19;5109397;28;20481;-61
2022/08/21 08:32:24;;;;;;;0.20;0.20;;;;;;;29.16;40.99;99122.44;5109667;28;20044;-61
2022/08/21 08:34:51;;;;;;;0.10;0.10;;;;;;;29.19;41.07;99119.53;5109878;28;20035;-67
2022/08/21 08:37:18;;;;;;;0.20;0.20;;;;;;;29.19;41.18;99119.53;5109551;28;20054;-67
2022/08/21 08:39:43;;;;;;;0.40;0.28;;;;;;;29.19;41.17;99115.91;5109588;28;20499;-61
2022/08/21 08:42:16;;;;;;;0.30;0.30;;;;;;;29.18;40.86;99108.69;5109451;28;20043;-67
2022/08/21 08:44:42;;;;;;;;;;;;;;;29.26;40.77;99104.47;5109784;28;20070;-61
2022/08/21 08:47:09;;;;;;;0.30;0.20;;;;;;;29.20;40.76;99092.94;5109604;28;19915;-61
2022/08/21 08:49:40;;;;;;;0.25;0.25;;;;;;;29.22;40.80;99098.13;5109308;28;20112;-61
2022/08/21 08:52:18;;;;;;;0.20;0.20;;;;;;;29.22;40.92;99089.66;5109385;28;20050;-61
2022/08/21 08:54:51;;;;;;;0.10;0.10;;;;;;;29.21;40.80;99088.88;5109087;28;20072;-61
2022/08/21 08:57:20;;;;;;;0.30;0.20;;;;;;;29.22;40.65;99081.22;5106850;28;20047;-61
2022/08/21 08:59:49;;;;;;;0.40;0.20;;;;;;;29.21;40.78;99080.44;5109274;28;20063;-61
2022/08/21 09:02:17;;;;;;;0.20;0.20;;;;;;;29.22;40.80;99081.22;5109236;28;20040;-61
2022/08/21 09:04:45;;;;;;;0.45;0.30;;;;;;;29.22;40.78;99084.03;5109168;28;20055;-67
2022/08/21 09:07:33;;;;;;;0.22;0.13;;;;;;;29.18;41.02;99066.44;5109089;28;20044;-61
2022/08/21 09:10:07;;;;;;;0.52;0.20;;;;;;;29.23;41.38;99071.56;5109024;28;20086;-61
2022/08/21 09:12:32;;;;;;;0.50;0.30;;;;;;;29.25;41.10;99072.69;5109033;28;20040;-67
2022/08/21 09:15:04;;;;;;;0.30;0.30;;;;;;;29.24;40.83;99070.31;5108997;28;20480;-67
2022/08/21 09:17:33;;;;;;;0.35;0.20;;;;;;;29.26;40.92;99068.66;5109026;28;20365;-61
2022/08/21 09:20:08;;;;;;;0.55;0.30;;;;;;;29.25;41.06;99066.28;5109020;28;20522;-67
2022/08/21 09:22:52;;;;;;;0.20;0.20;;;;;;;29.26;40.99;99065.81;5108828;28;20074;-67
2022/08/21 09:25:28;;;;;;;0.38;0.30;;;;;;;29.26;40.87;99060.19;5108960;28;20573;-67
2022/08/21 09:27:54;;;;;;;0.32;0.30;;;;;;;29.26;40.77;99054.56;5109010;28;20039;-67
2022/08/21 09:30:25;;;;;;;0.22;0.22;;;;;;;29.27;41.14;99060.97;5111986;28;20058;-61
2022/08/21 09:32:50;;;;;;;0.30;0.30;;;;;;;29.27;41.05;99047.69;5112322;28;20075;-61
2022/08/21 09:35:19;;;;;;;0.20;0.17;;;;;;;29.24;40.72;99044.97;5112191;28;20071;-67
2022/08/21 09:37:56;;;;;;;0.20;0.20;;;;;;;29.29;40.99;99047.22;5112079;28;20039;-61
2022/08/21 09:40:47;;;;;;;0.22;0.22;;;;;;;29.29;41.13;99047.22;5112199;28;20048;-61
2022/08/21 09:43:22;;;;;;;0.20;0.20;;;;;;;29.29;41.11;99050.06;5112272;28;20189;-67
2022/08/21 09:46:00;;;;;;;0.40;0.30;;;;;;;29.28;41.13;99045.66;5111942;28;20035;-66
2022/08/21 09:48:26;;;;;;;0.20;0.20;;;;;;;29.31;40.85;99039.94;5112023;28;20059;-67
2022/08/21 09:50:53;;;;;;;0.20;0.20;;;;;;;29.32;40.94;99043.56;5111786;28;20059;-67
2022/08/21 09:53:26;;;;;;;0.20;0.20;;;;;;;29.32;41.00;99035.09;5111894;28;20048;-67
2022/08/21 09:58:46;;;;;;;0.28;0.28;;;;;;;29.33;40.89;99036.69;5112134;28;20407;-67
2022/08/21 10:01:18;;;;;;;0.10;0.10;;;;;;;29.30;41.18;99023.50;5111862;28;20047;-66
2022/08/21 10:03:44;;;;;;;0.50;0.20;;;;;;;29.33;40.75;99023.38;5111954;28;20086;-67
2022/08/21 10:06:22;;;;;;;0.10;0.10;;;;;;;29.31;40.77;99006.13;5111579;28;20043;-61
2022/08/21 10:08:47;;;;;;;0.30;0.30;;;;;;;29.33;40.85;99003.66;5111769;28;20055;-61
2022/08/21 10:11:15;;;;;;;0.45;0.30;;;;;;;29.35;40.79;99006.03;5111595;28;20035;-61
2022/08/21 10:14:01;;;;;;;0.10;0.10;;;;;;;29.35;40.87;99000.38;5111612;28;20059;-61
2022/08/21 10:16:38;;;;;;;0.38;0.30;;;;;;;29.35;40.79;98994.75;5111539;28;20546;-61
2022/08/21 10:19:24;;;;;;;0.25;0.20;;;;;;;29.35;40.77;98991.94;5111768;28;20083;-61
2022/08/21 10:22:15;;;;;;;0.20;0.20;;;;;;;29.36;40.86;98989.91;5108407;28;20415;-61
2022/08/21 10:25:01;;;;;;;0.40;0.20;;;;;;;29.34;40.96;98984.72;5111428;28;20526;-61
2022/08/21 10:28:00;;;;;;;0.40;0.32;;;;;;;29.35;41.00;98986.31;5111470;28;20767;-61
2022/08/21 10:30:52;;;;;;;0.22;0.22;;;;;;;29.36;41.02;98981.47;5111387;28;20402;-61
2022/08/21 10:33:26;;;;;;;0.20;0.20;;;;;;;29.36;40.71;98973.78;5111470;28;20047;-61
2022/08/21 10:36:02;;;;;;;0.55;0.20;;;;;;;29.32;40.93;98976.72;5111266;28;20054;-61
2022/08/21 10:38:41;;;;;;;0.20;0.20;;;;;;;29.33;40.85;98966.25;5111283;28;20507;-61
2022/08/21 10:41:31;;;;;;;0.20;0.20;;;;;;;29.32;40.75;98957.00;5111079;28;20135;-67
2022/08/21 10:44:34;;;;;;;0.20;0.20;;;;;;;29.34;40.92;98950.91;5110887;28;20055;-67
2022/08/21 10:47:16;;;;;;;0.60;0.30;;;;;;;29.32;40.74;98942.13;5092482;28;20463;-67
2022/08/21 10:49:54;;;;;;;0.30;0.20;;;;;;;29.35;41.08;98938.41;5110819;28;20585;-67
2022/08/21 10:52:38;;;;;;;0.35;0.32;;;;;;;29.34;41.15;98934.81;5111139;28;20051;-67
2022/08/21 10:55:11;;;;;;;0.25;0.20;;;;;;;29.35;40.95;98932.78;5111106;28;20039;-67
2022/08/21 10:58:00;;;;;;;0.20;0.20;;;;;;;29.34;41.03;98926.34;5110860;28;20059;-67
2022/08/21 11:00:53;;;;;;;0.30;0.30;;;;;;;29.36;41.02;98928.72;5108983;28;20032;-67
2022/08/21 11:03:31;;;;;;;0.40;0.30;;;;;;;29.33;41.11;98896.59;5099646;28;20465;-67
2022/08/21 11:06:10;;;;;;;0.25;0.20;;;;;;;29.35;41.16;98901.78;5110905;28;20047;-61
2022/08/21 11:08:52;;;;;;;0.47;0.20;;;;;;;29.34;40.78;98894.56;5109079;28;20036;-67
2022/08/21 11:11:26;;;;;;;0.30;0.30;;;;;;;29.36;41.17;98894.91;5110848;28;20503;-61
2022/08/21 11:13:55;;;;;;;0.20;0.20;;;;;;;29.36;41.17;98894.91;5110898;28;20074;-67
2022/08/21 11:16:21;;;;;;;0.28;0.20;;;;;;;29.36;40.80;98894.91;5110612;28;20499;-67
2022/08/21 11:18:53;;;;;;;0.20;0.20;;;;;;;29.35;41.01;98893.34;5110623;28;20050;-67
2022/08/21 11:21:24;;;;;;;;;;;;;;;29.41;41.00;98888.72;5110890;28;20273;-61
2022/08/21 11:24:07;;;;;;;0.22;0.20;;;;;;;29.38;40.77;98878.38;5110418;28;20425;-61
2022/08/21 11:26:41;;;;;;;0.20;0.20;;;;;;;29.37;41.20;98876.78;5110405;28;20431;-61
2022/08/21 11:29:19;;;;;;;0.40;0.20;;;;;;;29.34;41.06;98875.63;5110486;28;20101;-61
2022/08/21 11:32:04;;;;;;;0.28;0.25;;;;;;;29.37;41.32;98876.00;5110360;28;20197;-61
2022/08/21 11:34:59;;;;;;;0.20;0.20;;;;;;;29.36;41.20;98878.00;5110244;28;20491;-67
2022/08/21 11:37:54;;;;;;;0.10;0.10;;;;;;;29.36;41.08;98872.38;5110656;28;20043;-67
2022/08/21 11:40:56;;;;;;;0.13;0.13;;;;;;;29.36;41.21;98878.00;5110045;28;20134;-67
2022/08/21 11:43:37;;;;;;;0.53;0.30;;;;;;;29.36;40.99;98875.19;5110218;28;20047;-67
2022/08/21 11:46:14;;;;;;;0.20;0.20;;;;;;;29.34;41.23;98880.47;5109935;28;20507;-67